createdAt,value
2023-02-19T00:00:49.976Z,70.87
2023-02-19T00:03:58.948Z,71.17
2023-02-19T00:07:01.526Z,71.90
2023-02-19T00:10:04.145Z,72.35
2023-02-19T00:13:06.879Z,71.67
2023-02-19T00:16:12.180Z,71.55
2023-02-19T00:19:19.410Z,72.16
2023-02-19T00:22:22.072Z,72.89
2023-02-19T00:25:24.568Z,73.50
2023-02-19T00:28:27.077Z,73.59
2023-02-19T00:31:33.381Z,73.31
2023-02-19T00:34:36.372Z,73.48
2023-02-19T00:37:38.645Z,73.01
2023-02-19T00:40:41.098Z,72.81
2023-02-19T00:43:43.631Z,73.20
2023-02-19T00:46:47.921Z,73.25
2023-02-19T00:49:50.167Z,73.02
2023-02-19T00:52:52.664Z,73.26
2023-02-19T00:55:55.390Z,73.21
2023-02-19T00:58:58.460Z,73.19
2023-02-19T01:02:01.013Z,73.18
2023-02-19T01:05:04.075Z,73.26
2023-02-19T01:08:06.564Z,73.82
2023-02-19T01:11:10.311Z,73.69
2023-02-19T01:14:13.053Z,73.59
2023-02-19T01:17:15.976Z,72.73
2023-02-19T01:20:18.519Z,72.94
2023-02-19T01:23:21.137Z,72.77
2023-02-19T01:26:26.529Z,72.16
2023-02-19T01:29:29.164Z,72.48
2023-02-19T01:32:32.767Z,72.98
2023-02-19T01:35:38.685Z,73.45
2023-02-19T01:38:41.477Z,73.78
2023-02-19T01:41:44.071Z,74.41
2023-02-19T01:44:46.612Z,74.50
2023-02-19T01:47:58.429Z,74.12
2023-02-19T01:51:06.176Z,74.60
2023-02-19T01:54:12.237Z,74.92
2023-02-19T01:57:20.975Z,75.34
2023-02-19T02:00:24.809Z,75.66
2023-02-19T02:03:29.477Z,76.12
2023-02-19T02:06:39.316Z,76.89
2023-02-19T02:10:00.843Z,77.21
2023-02-19T02:13:03.358Z,76.68
2023-02-19T02:19:23.638Z,76.18
2023-02-19T02:22:35.056Z,75.51
2023-02-19T02:26:11.266Z,75.17
2023-02-19T02:29:17.632Z,75.16
2023-02-19T02:32:26.587Z,74.28
2023-02-19T02:35:35.066Z,74.49
2023-02-19T02:38:41.613Z,75.54
2023-02-19T02:41:45.804Z,76.20
2023-02-19T02:45:07.879Z,78.07
2023-02-19T02:48:35.177Z,78.57
2023-02-19T02:51:41.559Z,78.98
2023-02-19T02:55:02.910Z,80.07
2023-02-19T02:58:07.640Z,80.32
2023-02-19T03:01:42.871Z,81.82
2023-02-19T03:05:17.701Z,82.54
2023-02-19T03:08:30.181Z,83.18
2023-02-19T03:11:55.184Z,83.95
2023-02-19T03:15:21.524Z,83.72
2023-02-19T03:18:46.833Z,83.32
2023-02-19T03:22:00.676Z,83.49
2023-02-19T03:25:33.109Z,84.21
2023-02-19T03:28:59.569Z,84.62
2023-02-19T03:32:18.337Z,85.53
2023-02-19T03:35:27.693Z,85.29
2023-02-19T03:38:39.870Z,85.84
2023-02-19T03:41:55.979Z,85.15
2023-02-19T03:45:25.532Z,85.08
2023-02-19T03:48:35.780Z,85.92
2023-02-19T03:51:49.984Z,86.70
2023-02-19T03:55:03.113Z,86.34
2023-02-19T03:58:32.669Z,86.21
2023-02-19T04:01:44.554Z,87.26
2023-02-19T04:04:59.202Z,87.74
2023-02-19T04:08:16.557Z,81.91
2023-02-19T04:11:22.535Z,85.01
2023-02-19T04:14:31.785Z,82.92
2023-02-19T04:17:39.257Z,83.36
2023-02-19T04:20:44.639Z,85.34
2023-02-19T04:23:48.120Z,84.06
2023-02-19T04:26:51.379Z,85.58
2023-02-19T04:29:54.188Z,86.20
2023-02-19T04:32:56.385Z,86.65
2023-02-19T04:35:59.877Z,86.52
2023-02-19T04:39:02.093Z,87.53
2023-02-19T04:42:05.556Z,87.61
2023-02-19T04:45:08.261Z,89.69
2023-02-19T04:48:11.277Z,89.43
2023-02-19T04:51:13.751Z,90.15
2023-02-19T04:54:16.642Z,90.91
2023-02-19T04:57:18.998Z,91.39
2023-02-19T05:00:22.635Z,93.88
2023-02-19T05:03:24.830Z,92.77
2023-02-19T05:06:27.549Z,93.43
2023-02-19T05:09:29.736Z,93.12
2023-02-19T05:12:32.528Z,93.31
2023-02-19T05:15:35.651Z,93.82
2023-02-19T05:18:38.453Z,93.68
2023-02-19T05:21:40.772Z,93.66
2023-02-19T05:24:43.506Z,93.04
2023-02-19T05:27:45.883Z,93.40
2023-02-19T05:30:51.287Z,93.32
2023-02-19T05:33:56.815Z,93.24
2023-02-19T05:36:59.433Z,93.50
2023-02-19T05:40:01.977Z,93.46
2023-02-19T05:43:05.320Z,94.05
2023-02-19T05:46:08.204Z,94.31
2023-02-19T05:49:11.069Z,94.56
2023-02-19T05:52:13.376Z,95.22
2023-02-19T05:55:16.536Z,95.53
2023-02-19T05:58:18.761Z,95.31
2023-02-19T06:01:23.222Z,96.09
2023-02-19T06:04:25.773Z,96.52
2023-02-19T06:07:28.044Z,95.08
2023-02-19T06:10:31.645Z,95.87
2023-02-19T06:13:34.186Z,96.67
2023-02-19T06:16:36.684Z,96.59
2023-02-19T06:19:39.209Z,96.08
2023-02-19T06:22:41.790Z,96.27
2023-02-19T06:25:44.028Z,96.21
2023-02-19T06:28:51.193Z,96.16
2023-02-19T06:31:53.963Z,96.26
2023-02-19T06:34:56.867Z,94.62
2023-02-19T06:37:59.166Z,95.85
2023-02-19T06:41:04.180Z,95.87
2023-02-19T06:44:06.721Z,96.27
2023-02-19T06:47:09.768Z,95.90
2023-02-19T06:50:12.091Z,96.06
2023-02-19T06:53:14.754Z,97.75
2023-02-19T06:56:35.701Z,96.81
2023-02-19T06:59:38.220Z,96.83
2023-02-19T07:02:40.391Z,96.61
2023-02-19T07:05:43.878Z,96.51
2023-02-19T07:08:46.201Z,94.87
2023-02-19T07:11:49.194Z,95.66
2023-02-19T07:14:51.405Z,94.16
2023-02-19T07:17:53.957Z,95.61
2023-02-19T07:21:01.648Z,95.24
2023-02-19T07:24:05.691Z,94.90
2023-02-19T07:27:07.998Z,93.87
2023-02-19T07:30:10.954Z,94.43
2023-02-19T07:33:13.130Z,93.40
2023-02-19T07:36:17.706Z,93.03
2023-02-19T07:39:19.967Z,91.28
2023-02-19T07:42:22.824Z,90.42
2023-02-19T07:45:25.324Z,89.74
2023-02-19T07:48:27.902Z,89.92
2023-02-19T07:51:30.290Z,89.19
2023-02-19T07:54:33.150Z,88.78
2023-02-19T07:57:35.530Z,88.22
2023-02-19T08:00:39.028Z,88.25
2023-02-19T08:03:42.807Z,87.47
2023-02-19T08:06:45.125Z,87.85
2023-02-19T08:10:07.946Z,88.35
2023-02-19T08:13:25.268Z,88.63
2023-02-19T08:16:41.085Z,92.29
2023-02-19T08:19:44.952Z,94.64
2023-02-19T08:22:47.778Z,100.00
2023-02-19T08:25:51.837Z,100.00
2023-02-19T08:28:54.674Z,100.00
2023-02-19T08:31:56.800Z,100.00
2023-02-19T08:34:59.337Z,100.00
2023-02-19T08:38:02.091Z,100.00
2023-02-19T08:41:07.346Z,100.00
2023-02-19T08:44:10.255Z,100.00
2023-02-19T08:47:12.811Z,100.00
2023-02-19T08:50:15.905Z,100.00
2023-02-19T08:53:18.392Z,100.00
2023-02-19T08:56:20.605Z,100.00
2023-02-19T08:59:23.919Z,100.00
2023-02-19T09:02:26.246Z,100.00
2023-02-19T09:05:28.690Z,100.00
2023-02-19T09:08:31.229Z,100.00
2023-02-19T09:11:33.756Z,100.00
2023-02-19T09:14:36.447Z,100.00
2023-02-19T09:17:39.295Z,100.00
2023-02-19T09:20:41.454Z,100.00
2023-02-19T09:23:43.947Z,100.00
2023-02-19T09:26:49.705Z,100.00
2023-02-19T09:29:52.846Z,100.00
2023-02-19T09:32:55.066Z,100.00
2023-02-19T09:36:01.615Z,100.00
2023-02-19T09:39:06.691Z,100.00
2023-02-19T09:42:27.210Z,100.00
2023-02-19T09:45:29.583Z,100.00
2023-02-19T09:48:32.546Z,100.00
2023-02-19T09:51:37.902Z,100.00
2023-02-19T09:54:43.677Z,100.00
2023-02-19T09:57:47.068Z,100.00
2023-02-19T10:00:55.940Z,100.00
2023-02-19T10:03:58.643Z,100.00
2023-02-19T10:07:03.815Z,100.00
2023-02-19T10:10:15.522Z,100.00
2023-02-19T10:13:30.783Z,100.00
2023-02-19T10:16:33.885Z,100.00
2023-02-19T10:19:36.648Z,100.00
2023-02-19T10:22:39.153Z,100.00
2023-02-19T10:25:46.981Z,100.00
2023-02-19T10:28:49.715Z,100.00
2023-02-19T10:32:13.673Z,100.00
2023-02-19T10:35:16.710Z,100.00
2023-02-19T10:38:20.790Z,97.12
2023-02-19T10:41:25.949Z,96.71
2023-02-19T10:44:52.022Z,93.80
2023-02-19T10:47:54.693Z,89.09
2023-02-19T10:51:04.956Z,87.22
2023-02-19T10:54:24.989Z,84.08
2023-02-19T10:57:30.555Z,83.17
2023-02-19T11:00:33.746Z,83.10
2023-02-19T11:03:36.032Z,83.39
2023-02-19T11:06:39.068Z,82.07
2023-02-19T11:09:45.440Z,82.48
2023-02-19T11:12:50.497Z,81.15
2023-02-19T11:15:55.163Z,77.92
2023-02-19T11:18:58.329Z,75.73
2023-02-19T11:22:01.626Z,76.21
2023-02-19T11:25:17.862Z,73.32
2023-02-19T11:28:26.837Z,71.91
2023-02-19T11:31:32.726Z,73.24
2023-02-19T11:34:35.611Z,74.06
2023-02-19T11:37:55.890Z,70.62
2023-02-19T11:41:14.692Z,69.00
2023-02-19T11:44:39.269Z,68.38
2023-02-19T11:47:57.939Z,68.32
2023-02-19T11:51:03.784Z,68.83
2023-02-19T11:54:37.485Z,68.58
2023-02-19T11:58:24.587Z,69.32
2023-02-19T12:02:05.061Z,70.06
2023-02-19T12:05:41.848Z,69.31
2023-02-19T12:09:14.864Z,66.53
2023-02-19T12:12:29.549Z,67.80
2023-02-19T12:18:56.411Z,66.42
2023-02-19T12:22:17.053Z,65.52
2023-02-19T12:25:41.888Z,65.40
2023-02-19T12:28:56.124Z,65.26
2023-02-19T12:32:09.847Z,65.35
2023-02-19T12:35:21.067Z,65.44
2023-02-19T12:38:45.102Z,65.56
2023-02-19T12:42:07.028Z,64.49
2023-02-19T12:45:20.714Z,65.01
2023-02-19T12:48:47.479Z,64.95
2023-02-19T12:51:57.482Z,64.17
2023-02-19T12:55:11.657Z,64.57
2023-02-19T12:58:44.646Z,63.54
2023-02-19T13:01:58.116Z,62.28
2023-02-19T13:05:21.092Z,60.80
2023-02-19T13:08:35.583Z,58.99
2023-02-19T13:12:17.725Z,60.34
2023-02-19T13:15:32.815Z,60.01
2023-02-19T13:18:41.898Z,60.60
2023-02-19T13:22:09.881Z,59.51
2023-02-19T13:25:14.805Z,61.82
2023-02-19T13:28:59.353Z,62.85
2023-02-19T13:32:24.437Z,62.97
2023-02-19T13:35:50.989Z,62.40
2023-02-19T13:38:57.324Z,61.23
2023-02-19T13:42:00.122Z,61.42
2023-02-19T13:45:06.223Z,60.00
2023-02-19T13:48:26.474Z,60.09
2023-02-19T13:51:28.863Z,61.77
2023-02-19T13:54:39.973Z,65.06
2023-02-19T13:57:42.536Z,67.92
2023-02-19T14:00:50.768Z,68.72
2023-02-19T14:03:54.463Z,69.75
2023-02-19T14:07:05.669Z,67.83
2023-02-19T14:10:13.742Z,79.35
2023-02-19T14:13:50.699Z,87.91
2023-02-19T14:17:04.961Z,98.62
2023-02-19T14:20:10.316Z,100.00
2023-02-19T14:23:30.890Z,100.00
2023-02-19T14:26:34.533Z,100.00
2023-02-19T14:29:37.577Z,100.00
2023-02-19T14:32:43.596Z,100.00
2023-02-19T14:35:52.556Z,100.00
2023-02-19T14:39:02.489Z,100.00
2023-02-19T14:42:12.320Z,100.00
2023-02-19T14:45:17.967Z,100.00
2023-02-19T14:48:28.876Z,100.00
2023-02-19T14:51:37.164Z,100.00
2023-02-19T14:55:01.662Z,100.00
2023-02-19T14:58:13.459Z,100.00
2023-02-19T15:01:28.815Z,100.00
2023-02-19T15:04:37.054Z,100.00
2023-02-19T15:07:41.894Z,100.00
2023-02-19T15:10:44.886Z,100.00
2023-02-19T15:13:54.450Z,100.00
2023-02-19T15:17:04.088Z,100.00
2023-02-19T15:20:11.517Z,97.38
2023-02-19T15:23:20.949Z,100.00
2023-02-19T15:26:34.306Z,100.00
2023-02-19T15:29:46.211Z,99.82
2023-02-19T15:32:54.716Z,100.00
2023-02-19T15:36:04.712Z,99.62
2023-02-19T15:39:07.360Z,96.75
2023-02-19T15:42:15.750Z,96.61
2023-02-19T15:45:41.534Z,97.60
2023-02-19T15:49:09.753Z,98.24
2023-02-19T15:52:22.620Z,97.15
2023-02-19T15:55:50.822Z,97.76
2023-02-19T15:59:24.366Z,97.30
2023-02-19T16:02:27.837Z,97.87
2023-02-19T16:05:36.966Z,94.01
2023-02-19T16:08:40.490Z,96.82
2023-02-19T16:12:22.021Z,95.45
2023-02-19T16:15:24.626Z,92.59
2023-02-19T16:18:28.940Z,92.78
2023-02-19T16:21:32.071Z,91.08
2023-02-19T16:24:40.694Z,90.98
2023-02-19T16:27:44.377Z,91.01
2023-02-19T16:30:59.100Z,92.08
2023-02-19T16:34:17.675Z,91.47
2023-02-19T16:37:41.042Z,89.99
2023-02-19T16:40:50.832Z,89.28
2023-02-19T16:43:53.318Z,91.27
2023-02-19T16:47:02.045Z,91.64
2023-02-19T16:50:13.265Z,94.26
2023-02-19T16:53:20.329Z,92.16
2023-02-19T16:56:23.336Z,96.80
2023-02-19T16:59:25.508Z,98.32
2023-02-19T17:02:28.871Z,99.25
2023-02-19T17:05:32.560Z,98.61
2023-02-19T17:08:38.504Z,98.17
2023-02-19T17:11:44.516Z,98.98
2023-02-19T17:14:47.334Z,99.40
2023-02-19T17:17:49.570Z,98.78
2023-02-19T17:21:05.114Z,100.00
2023-02-19T17:24:07.941Z,99.86
2023-02-19T17:27:12.332Z,96.94
2023-02-19T17:30:31.405Z,97.92
2023-02-19T17:33:34.281Z,97.77
2023-02-19T17:36:37.977Z,95.72
2023-02-19T17:39:40.467Z,91.94
2023-02-19T17:42:42.993Z,90.44
2023-02-19T17:45:45.828Z,90.10
2023-02-19T17:48:49.050Z,91.54
2023-02-19T17:51:51.924Z,89.31
2023-02-19T17:54:54.479Z,89.21
2023-02-19T17:57:57.307Z,89.70
2023-02-19T18:00:59.535Z,87.93
2023-02-19T18:04:02.734Z,88.07
2023-02-19T18:07:05.145Z,88.67
2023-02-19T18:10:08.384Z,87.96
2023-02-19T18:13:11.013Z,88.47
2023-02-19T18:16:15.658Z,86.91
2023-02-19T18:19:18.452Z,87.04
2023-02-19T18:22:21.460Z,85.75
2023-02-19T18:25:24.813Z,86.56
2023-02-19T18:28:28.232Z,85.98
2023-02-19T18:31:34.329Z,84.91
2023-02-19T18:34:38.008Z,84.94
2023-02-19T18:37:40.559Z,85.47
2023-02-19T18:40:43.865Z,86.15
2023-02-19T18:43:47.497Z,87.35
2023-02-19T18:46:50.728Z,86.60
2023-02-19T18:49:55.707Z,87.63
2023-02-19T18:52:58.323Z,88.43
2023-02-19T18:56:01.997Z,89.19
2023-02-19T18:59:04.644Z,89.61
2023-02-19T19:02:09.286Z,88.72
2023-02-19T19:05:13.613Z,91.70
2023-02-19T19:08:15.854Z,90.74
2023-02-19T19:11:19.669Z,91.43
2023-02-19T19:14:22.335Z,93.37
2023-02-19T19:17:24.931Z,92.16
2023-02-19T19:20:27.904Z,90.57
2023-02-19T19:23:31.428Z,87.65
2023-02-19T19:26:34.731Z,86.46
2023-02-19T19:29:37.759Z,87.24
2023-02-19T19:32:40.201Z,88.22
2023-02-19T19:35:43.494Z,88.05
2023-02-19T19:38:46.932Z,88.31
2023-02-19T19:41:54.876Z,89.00
2023-02-19T19:44:57.077Z,88.57
2023-02-19T19:47:59.658Z,87.97
2023-02-19T19:51:01.947Z,88.05
2023-02-19T19:54:05.085Z,87.52
2023-02-19T19:57:07.918Z,88.93
2023-02-19T20:00:14.568Z,89.12
2023-02-19T20:03:18.450Z,88.45
2023-02-19T20:06:29.838Z,88.76
2023-02-19T20:09:32.778Z,89.44
2023-02-19T20:12:34.920Z,86.65
2023-02-19T20:15:37.473Z,87.51
2023-02-19T20:18:40.466Z,87.66
2023-02-19T20:21:51.279Z,85.68
2023-02-19T20:24:54.677Z,84.98
2023-02-19T20:27:57.741Z,84.39
2023-02-19T20:31:00.508Z,84.89
2023-02-19T20:34:03.576Z,83.91
2023-02-19T20:37:07.291Z,82.08
2023-02-19T20:40:11.376Z,82.74
2023-02-19T20:43:13.736Z,83.65
2023-02-19T20:46:16.770Z,81.38
2023-02-19T20:49:21.770Z,81.29
2023-02-19T20:52:24.836Z,81.75
2023-02-19T20:55:28.040Z,80.61
2023-02-19T20:58:30.867Z,79.42
2023-02-19T21:01:33.123Z,80.70
2023-02-19T21:04:38.623Z,80.37
2023-02-19T21:07:41.129Z,79.71
2023-02-19T21:10:45.514Z,81.18
2023-02-19T21:13:48.271Z,79.79
2023-02-19T21:16:51.361Z,80.72
2023-02-19T21:19:53.664Z,79.81
2023-02-19T21:22:56.826Z,80.34
2023-02-19T21:26:04.446Z,79.79
2023-02-19T21:29:11.047Z,80.04
2023-02-19T21:32:13.899Z,80.66
2023-02-19T21:35:17.537Z,80.05
2023-02-19T21:38:20.061Z,81.40
2023-02-19T21:41:25.941Z,80.47
2023-02-19T21:44:28.499Z,81.28
2023-02-19T21:47:31.686Z,82.06
2023-02-19T21:50:34.241Z,81.75
2023-02-19T21:53:37.442Z,81.24
2023-02-19T21:56:40.607Z,80.99
2023-02-19T21:59:43.372Z,79.55
2023-02-19T22:02:45.859Z,79.42
2023-02-19T22:05:48.984Z,78.16
2023-02-19T22:08:52.257Z,77.09
2023-02-19T22:11:56.119Z,73.57
2023-02-19T22:14:58.315Z,70.95
2023-02-19T22:18:01.104Z,69.52
2023-02-19T22:21:05.118Z,69.39
2023-02-19T22:24:07.995Z,69.26
2023-02-19T22:27:10.360Z,70.47
2023-02-19T22:30:13.403Z,68.22
2023-02-19T22:33:16.059Z,68.40
2023-02-19T22:36:23.255Z,68.09
2023-02-19T22:39:27.029Z,67.60
2023-02-19T22:42:29.895Z,67.49
2023-02-19T22:45:32.437Z,68.39
2023-02-19T22:48:35.299Z,67.48
2023-02-19T22:51:37.852Z,66.81
2023-02-19T22:54:41.532Z,66.91
2023-02-19T22:57:46.112Z,66.90
2023-02-19T23:00:50.121Z,68.37
2023-02-19T23:03:57.736Z,66.38
2023-02-19T23:07:00.644Z,66.47
2023-02-19T23:10:03.404Z,65.49
2023-02-19T23:13:06.088Z,66.62
2023-02-19T23:16:09.408Z,66.77
2023-02-19T23:19:15.506Z,64.60
2023-02-19T23:22:18.145Z,65.15
2023-02-19T23:25:20.961Z,64.61
2023-02-19T23:28:23.685Z,65.23
2023-02-19T23:31:30.032Z,64.21
2023-02-19T23:34:32.555Z,64.44
2023-02-19T23:37:35.756Z,64.55
2023-02-19T23:40:38.615Z,63.77
2023-02-19T23:43:42.021Z,64.62
2023-02-19T23:46:45.304Z,64.56
2023-02-19T23:49:48.690Z,64.50
2023-02-19T23:52:51.176Z,63.73
2023-02-19T23:55:54.039Z,64.20
2023-02-19T23:58:56.839Z,64.31
